sensor_id;sensor_type;location;lat;lon;timestamp;P1;durP1;ratioP1;P2;durP2;ratioP2
25980;SDS011;13772;52.996;9.124;2023-08-31T06:30:52;6.82;;;3.85;;
25980;SDS011;13772;52.996;9.124;2023-08-31T06:33:18;5.72;;;3.75;;
25980;SDS011;13772;52.996;9.124;2023-08-31T06:35:46;8.77;;;4.53;;
25980;SDS011;13772;52.996;9.124;2023-08-31T06:38:13;7.93;;;4.88;;
25980;SDS011;13772;52.996;9.124;2023-08-31T06:40:39;10.05;;;5.55;;
25980;SDS011;13772;52.996;9.124;2023-08-31T06:43:04;8.95;;;5.45;;
25980;SDS011;13772;52.996;9.124;2023-08-31T06:45:29;10.77;;;5.25;;
25980;SDS011;13772;52.996;9.124;2023-08-31T06:47:54;11.18;;;5.50;;
25980;SDS011;13772;52.996;9.124;2023-08-31T06:50:19;12.07;;;6.18;;
25980;SDS011;13772;52.996;9.124;2023-08-31T06:52:45;10.50;;;6.40;;
25980;SDS011;13772;52.996;9.124;2023-08-31T06:55:11;9.65;;;6.45;;
25980;SDS011;13772;52.996;9.124;2023-08-31T06:57:37;10.63;;;5.95;;
25980;SDS011;13772;52.996;9.124;2023-08-31T07:00:02;12.20;;;6.40;;
25980;SDS011;13772;52.996;9.124;2023-08-31T07:02:28;10.32;;;6.60;;
25980;SDS011;13772;52.996;9.124;2023-08-31T07:04:54;10.10;;;6.25;;
25980;SDS011;13772;52.996;9.124;2023-08-31T07:07:19;10.15;;;6.75;;
25980;SDS011;13772;52.996;9.124;2023-08-31T07:09:45;13.10;;;6.88;;
25980;SDS011;13772;52.996;9.124;2023-08-31T07:12:11;10.85;;;6.60;;
25980;SDS011;13772;52.996;9.124;2023-08-31T07:14:36;11.98;;;7.43;;
25980;SDS011;13772;52.996;9.124;2023-08-31T07:17:01;11.75;;;7.25;;
25980;SDS011;13772;52.996;9.124;2023-08-31T07:19:26;10.50;;;6.97;;
25980;SDS011;13772;52.996;9.124;2023-08-31T07:21:52;9.95;;;7.20;;
25980;SDS011;13772;52.996;9.124;2023-08-31T07:24:19;11.25;;;7.80;;
25980;SDS011;13772;52.996;9.124;2023-08-31T07:26:44;12.45;;;7.25;;
25980;SDS011;13772;52.996;9.124;2023-08-31T07:29:10;10.68;;;7.05;;
25980;SDS011;13772;52.996;9.124;2023-08-31T07:31:35;12.02;;;7.10;;
25980;SDS011;13772;52.996;9.124;2023-08-31T07:34:01;12.45;;;7.15;;
25980;SDS011;13772;52.996;9.124;2023-08-31T07:36:26;11.05;;;6.82;;
25980;SDS011;13772;52.996;9.124;2023-08-31T07:38:51;8.77;;;6.63;;
25980;SDS011;13772;52.996;9.124;2023-08-31T07:41:16;9.30;;;7.22;;
25980;SDS011;13772;52.996;9.124;2023-08-31T07:43:42;9.13;;;7.03;;
25980;SDS011;13772;52.996;9.124;2023-08-31T07:46:07;8.95;;;6.90;;
25980;SDS011;13772;52.996;9.124;2023-08-31T07:48:32;11.13;;;7.03;;
25980;SDS011;13772;52.996;9.124;2023-08-31T07:50:57;8.63;;;5.55;;
25980;SDS011;13772;52.996;9.124;2023-08-31T07:53:23;8.77;;;6.10;;
25980;SDS011;13772;52.996;9.124;2023-08-31T07:55:51;10.52;;;5.63;;
25980;SDS011;13772;52.996;9.124;2023-08-31T07:58:19;10.15;;;6.45;;
25980;SDS011;13772;52.996;9.124;2023-08-31T08:00:44;11.13;;;7.15;;
25980;SDS011;13772;52.996;9.124;2023-08-31T08:03:10;10.82;;;8.00;;
25980;SDS011;13772;52.996;9.124;2023-08-31T08:05:36;12.07;;;8.63;;
25980;SDS011;13772;52.996;9.124;2023-08-31T08:08:02;14.77;;;9.32;;
25980;SDS011;13772;52.996;9.124;2023-08-31T08:10:27;14.15;;;8.68;;
25980;SDS011;13772;52.996;9.124;2023-08-31T08:12:52;18.80;;;9.85;;
25980;SDS011;13772;52.996;9.124;2023-08-31T08:15:18;14.80;;;9.90;;
25980;SDS011;13772;52.996;9.124;2023-08-31T08:17:43;14.00;;;9.77;;
25980;SDS011;13772;52.996;9.124;2023-08-31T08:20:08;13.10;;;10.20;;
25980;SDS011;13772;52.996;9.124;2023-08-31T08:22:34;12.88;;;9.63;;
25980;SDS011;13772;52.996;9.124;2023-08-31T08:25:01;15.32;;;11.18;;
25980;SDS011;13772;52.996;9.124;2023-08-31T08:27:27;13.02;;;10.30;;
25980;SDS011;13772;52.996;9.124;2023-08-31T08:29:53;17.88;;;11.32;;
25980;SDS011;13772;52.996;9.124;2023-08-31T08:32:18;16.13;;;11.15;;
25980;SDS011;13772;52.996;9.124;2023-08-31T08:34:43;17.00;;;10.18;;
25980;SDS011;13772;52.996;9.124;2023-08-31T08:37:08;13.30;;;10.23;;
25980;SDS011;13772;52.996;9.124;2023-08-31T08:39:33;16.25;;;11.00;;
25980;SDS011;13772;52.996;9.124;2023-08-31T08:41:59;15.35;;;10.88;;
25980;SDS011;13772;52.996;9.124;2023-08-31T08:44:29;18.23;;;12.73;;
25980;SDS011;13772;52.996;9.124;2023-08-31T08:46:56;16.27;;;11.68;;
25980;SDS011;13772;52.996;9.124;2023-08-31T08:49:22;17.60;;;11.27;;
25980;SDS011;13772;52.996;9.124;2023-08-31T08:51:48;16.77;;;11.27;;
25980;SDS011;13772;52.996;9.124;2023-08-31T08:54:15;17.77;;;12.05;;
25980;SDS011;13772;52.996;9.124;2023-08-31T08:56:41;16.05;;;11.82;;
25980;SDS011;13772;52.996;9.124;2023-08-31T08:59:06;15.93;;;11.93;;
25980;SDS011;13772;52.996;9.124;2023-08-31T09:01:35;14.95;;;11.20;;
25980;SDS011;13772;52.996;9.124;2023-08-31T09:04:00;14.90;;;10.40;;
25980;SDS011;13772;52.996;9.124;2023-08-31T09:06:25;15.45;;;11.40;;
25980;SDS011;13772;52.996;9.124;2023-08-31T09:08:55;12.70;;;11.07;;
25980;SDS011;13772;52.996;9.124;2023-08-31T09:11:24;17.60;;;12.77;;
25980;SDS011;13772;52.996;9.124;2023-08-31T09:13:50;16.08;;;12.85;;
25980;SDS011;13772;52.996;9.124;2023-08-31T09:16:23;19.05;;;13.43;;
25980;SDS011;13772;52.996;9.124;2023-08-31T09:18:48;19.88;;;12.50;;
25980;SDS011;13772;52.996;9.124;2023-08-31T09:21:13;13.98;;;11.27;;
25980;SDS011;13772;52.996;9.124;2023-08-31T09:23:39;11.95;;;9.27;;
25980;SDS011;13772;52.996;9.124;2023-08-31T09:26:04;12.40;;;9.35;;
25980;SDS011;13772;52.996;9.124;2023-08-31T09:28:29;13.25;;;9.90;;
25980;SDS011;13772;52.996;9.124;2023-08-31T09:31:16;12.63;;;9.57;;
25980;SDS011;13772;52.996;9.124;2023-08-31T09:33:48;13.65;;;10.18;;
25980;SDS011;13772;52.996;9.124;2023-08-31T09:36:14;10.23;;;8.15;;
25980;SDS011;13772;52.996;9.124;2023-08-31T09:38:43;10.38;;;6.57;;
25980;SDS011;13772;52.996;9.124;2023-08-31T09:41:08;8.48;;;6.30;;
25980;SDS011;13772;52.996;9.124;2023-08-31T09:43:34;9.88;;;6.82;;
25980;SDS011;13772;52.996;9.124;2023-08-31T09:46:00;11.05;;;7.18;;
25980;SDS011;13772;52.996;9.124;2023-08-31T09:48:26;10.13;;;6.60;;
25980;SDS011;13772;52.996;9.124;2023-08-31T09:50:52;9.23;;;5.32;;
25980;SDS011;13772;52.996;9.124;2023-08-31T09:53:17;7.53;;;5.10;;
25980;SDS011;13772;52.996;9.124;2023-08-31T09:55:44;8.55;;;5.03;;
25980;SDS011;13772;52.996;9.124;2023-08-31T09:58:11;8.50;;;5.32;;
25980;SDS011;13772;52.996;9.124;2023-08-31T10:00:37;6.70;;;5.30;;
25980;SDS011;13772;52.996;9.124;2023-08-31T10:03:05;8.07;;;4.75;;
25980;SDS011;13772;52.996;9.124;2023-08-31T10:05:31;6.95;;;4.68;;
25980;SDS011;13772;52.996;9.124;2023-08-31T10:07:59;6.40;;;4.20;;
25980;SDS011;13772;52.996;9.124;2023-08-31T10:10:25;7.72;;;4.90;;
25980;SDS011;13772;52.996;9.124;2023-08-31T10:12:51;7.97;;;4.53;;
25980;SDS011;13772;52.996;9.124;2023-08-31T10:15:19;5.97;;;3.65;;
25980;SDS011;13772;52.996;9.124;2023-08-31T10:17:44;5.90;;;3.92;;
25980;SDS011;13772;52.996;9.124;2023-08-31T10:20:11;5.00;;;3.30;;
25980;SDS011;13772;52.996;9.124;2023-08-31T10:22:37;4.63;;;3.33;;
25980;SDS011;13772;52.996;9.124;2023-08-31T10:25:03;4.78;;;2.78;;
25980;SDS011;13772;52.996;9.124;2023-08-31T10:27:43;4.47;;;2.72;;
25980;SDS011;13772;52.996;9.124;2023-08-31T10:38:16;4.43;;;2.65;;
25980;SDS011;13772;52.996;9.124;2023-08-31T10:40:42;3.45;;;2.80;;
25980;SDS011;13772;52.996;9.124;2023-08-31T10:43:24;3.22;;;2.40;;
25980;SDS011;13772;52.996;9.124;2023-08-31T10:45:49;4.43;;;2.38;;
25980;SDS011;13772;52.996;9.124;2023-08-31T10:48:16;5.68;;;2.30;;
25980;SDS011;13772;52.996;9.124;2023-08-31T10:50:43;5.45;;;2.30;;
25980;SDS011;13772;52.996;9.124;2023-08-31T10:53:09;6.30;;;1.77;;
25980;SDS011;13772;52.996;9.124;2023-08-31T10:55:49;4.75;;;2.15;;
25980;SDS011;13772;52.996;9.124;2023-08-31T10:58:14;4.32;;;2.35;;
25980;SDS011;13772;52.996;9.124;2023-08-31T11:00:52;4.45;;;1.95;;
25980;SDS011;13772;52.996;9.124;2023-08-31T11:03:18;2.42;;;1.70;;
25980;SDS011;13772;52.996;9.124;2023-08-31T11:05:53;4.47;;;1.63;;
25980;SDS011;13772;52.996;9.124;2023-08-31T11:08:22;4.13;;;1.75;;
25980;SDS011;13772;52.996;9.124;2023-08-31T11:10:47;5.15;;;1.35;;
25980;SDS011;13772;52.996;9.124;2023-08-31T11:13:15;3.25;;;1.00;;
25980;SDS011;13772;52.996;9.124;2023-08-31T11:15:44;2.45;;;0.70;;
25980;SDS011;13772;52.996;9.124;2023-08-31T11:18:10;2.65;;;0.75;;
25980;SDS011;13772;52.996;9.124;2023-08-31T11:20:35;2.95;;;0.70;;
25980;SDS011;13772;52.996;9.124;2023-08-31T11:23:01;2.85;;;0.60;;
25980;SDS011;13772;52.996;9.124;2023-08-31T11:25:29;6.07;;;0.70;;
25980;SDS011;13772;52.996;9.124;2023-08-31T11:27:55;1.35;;;0.43;;
25980;SDS011;13772;52.996;9.124;2023-08-31T11:30:21;2.72;;;0.95;;
25980;SDS011;13772;52.996;9.124;2023-08-31T11:32:47;4.00;;;0.85;;
25980;SDS011;13772;52.996;9.124;2023-08-31T11:35:13;2.33;;;0.50;;
25980;SDS011;13772;52.996;9.124;2023-08-31T11:37:38;3.83;;;1.05;;
25980;SDS011;13772;52.996;9.124;2023-08-31T11:40:04;1.52;;;0.70;;
25980;SDS011;13772;52.996;9.124;2023-08-31T11:42:30;2.83;;;0.90;;
25980;SDS011;13772;52.996;9.124;2023-08-31T11:44:55;3.05;;;0.65;;
25980;SDS011;13772;52.996;9.124;2023-08-31T11:47:21;3.45;;;0.95;;
25980;SDS011;13772;52.996;9.124;2023-08-31T11:49:46;2.20;;;0.40;;
25980;SDS011;13772;52.996;9.124;2023-08-31T11:52:13;3.60;;;0.73;;
25980;SDS011;13772;52.996;9.124;2023-08-31T11:54:39;1.50;;;0.60;;
25980;SDS011;13772;52.996;9.124;2023-08-31T11:57:11;2.90;;;0.57;;
25980;SDS011;13772;52.996;9.124;2023-08-31T11:59:36;3.20;;;0.63;;
25980;SDS011;13772;52.996;9.124;2023-08-31T12:02:05;5.82;;;0.80;;
25980;SDS011;13772;52.996;9.124;2023-08-31T12:04:30;1.95;;;0.68;;
25980;SDS011;13772;52.996;9.124;2023-08-31T12:07:00;2.45;;;0.60;;
25980;SDS011;13772;52.996;9.124;2023-08-31T12:09:27;2.20;;;0.65;;
25980;SDS011;13772;52.996;9.124;2023-08-31T12:11:52;1.95;;;0.50;;
25980;SDS011;13772;52.996;9.124;2023-08-31T12:14:27;1.73;;;0.55;;
25980;SDS011;13772;52.996;9.124;2023-08-31T12:16:59;2.97;;;0.80;;
25980;SDS011;13772;52.996;9.124;2023-08-31T12:19:28;2.50;;;0.70;;
25980;SDS011;13772;52.996;9.124;2023-08-31T12:21:54;3.30;;;0.77;;
25980;SDS011;13772;52.996;9.124;2023-08-31T12:24:19;2.00;;;0.90;;
25980;SDS011;13772;52.996;9.124;2023-08-31T12:26:47;3.15;;;0.90;;
25980;SDS011;13772;52.996;9.124;2023-08-31T12:29:12;6.90;;;1.73;;
25980;SDS011;13772;52.996;9.124;2023-08-31T12:31:38;6.28;;;1.65;;
25980;SDS011;13772;52.996;9.124;2023-08-31T12:34:03;7.18;;;1.38;;
25980;SDS011;13772;52.996;9.124;2023-08-31T12:36:31;3.95;;;1.30;;
25980;SDS011;13772;52.996;9.124;2023-08-31T12:38:56;3.40;;;0.95;;
25980;SDS011;13772;52.996;9.124;2023-08-31T12:41:23;3.92;;;1.20;;
25980;SDS011;13772;52.996;9.124;2023-08-31T12:43:49;12.32;;;1.50;;
25980;SDS011;13772;52.996;9.124;2023-08-31T12:46:14;4.25;;;1.10;;
25980;SDS011;13772;52.996;9.124;2023-08-31T12:48:39;3.95;;;0.80;;
25980;SDS011;13772;52.996;9.124;2023-08-31T12:51:04;3.78;;;0.90;;
25980;SDS011;13772;52.996;9.124;2023-08-31T12:53:30;2.90;;;0.93;;
25980;SDS011;13772;52.996;9.124;2023-08-31T12:55:55;3.97;;;1.00;;
25980;SDS011;13772;52.996;9.124;2023-08-31T12:58:20;3.67;;;1.00;;
25980;SDS011;13772;52.996;9.124;2023-08-31T13:00:47;4.97;;;0.82;;
25980;SDS011;13772;52.996;9.124;2023-08-31T13:03:14;3.30;;;0.95;;
25980;SDS011;13772;52.996;9.124;2023-08-31T13:05:39;4.82;;;1.00;;
25980;SDS011;13772;52.996;9.124;2023-08-31T13:08:05;5.43;;;1.15;;
25980;SDS011;13772;52.996;9.124;2023-08-31T13:10:31;3.60;;;0.90;;
25980;SDS011;13772;52.996;9.124;2023-08-31T13:12:56;5.68;;;1.10;;
25980;SDS011;13772;52.996;9.124;2023-08-31T13:15:21;4.15;;;1.20;;
25980;SDS011;13772;52.996;9.124;2023-08-31T13:17:46;2.90;;;0.93;;
25980;SDS011;13772;52.996;9.124;2023-08-31T13:20:11;2.33;;;0.65;;
25980;SDS011;13772;52.996;9.124;2023-08-31T13:22:37;4.85;;;0.90;;
25980;SDS011;13772;52.996;9.124;2023-08-31T13:25:02;3.83;;;1.02;;
25980;SDS011;13772;52.996;9.124;2023-08-31T13:27:29;2.42;;;0.85;;
25980;SDS011;13772;52.996;9.124;2023-08-31T13:29:54;1.27;;;0.40;;
25980;SDS011;13772;52.996;9.124;2023-08-31T13:32:20;2.28;;;0.50;;
25980;SDS011;13772;52.996;9.124;2023-08-31T13:34:45;1.23;;;0.50;;
25980;SDS011;13772;52.996;9.124;2023-08-31T13:37:10;1.88;;;0.65;;
25980;SDS011;13772;52.996;9.124;2023-08-31T13:39:36;4.65;;;0.70;;
25980;SDS011;13772;52.996;9.124;2023-08-31T13:42:02;1.45;;;0.40;;
25980;SDS011;13772;52.996;9.124;2023-08-31T13:44:28;1.30;;;0.60;;
25980;SDS011;13772;52.996;9.124;2023-08-31T13:46:54;3.70;;;0.55;;
25980;SDS011;13772;52.996;9.124;2023-08-31T13:49:19;2.00;;;0.60;;
25980;SDS011;13772;52.996;9.124;2023-08-31T13:51:44;1.50;;;0.60;;
25980;SDS011;13772;52.996;9.124;2023-08-31T13:54:10;0.70;;;0.47;;
25980;SDS011;13772;52.996;9.124;2023-08-31T13:56:35;2.28;;;0.50;;
25980;SDS011;13772;52.996;9.124;2023-08-31T13:59:01;1.67;;;0.60;;
25980;SDS011;13772;52.996;9.124;2023-08-31T14:01:26;1.20;;;0.55;;
25980;SDS011;13772;52.996;9.124;2023-08-31T14:03:51;2.53;;;0.75;;
25980;SDS011;13772;52.996;9.124;2023-08-31T14:06:17;1.50;;;0.52;;
25980;SDS011;13772;52.996;9.124;2023-08-31T14:08:42;1.52;;;0.47;;
25980;SDS011;13772;52.996;9.124;2023-08-31T14:11:07;1.15;;;0.60;;
25980;SDS011;13772;52.996;9.124;2023-08-31T14:13:32;0.73;;;0.40;;
25980;SDS011;13772;52.996;9.124;2023-08-31T14:15:58;1.30;;;0.40;;
25980;SDS011;13772;52.996;9.124;2023-08-31T14:18:23;1.60;;;0.50;;
25980;SDS011;13772;52.996;9.124;2023-08-31T14:20:50;1.30;;;0.40;;
25980;SDS011;13772;52.996;9.124;2023-08-31T14:23:15;1.40;;;0.50;;
25980;SDS011;13772;52.996;9.124;2023-08-31T14:25:41;2.83;;;0.57;;
25980;SDS011;13772;52.996;9.124;2023-08-31T14:28:06;2.90;;;0.70;;
25980;SDS011;13772;52.996;9.124;2023-08-31T14:30:31;1.52;;;0.50;;
25980;SDS011;13772;52.996;9.124;2023-08-31T14:32:56;1.30;;;0.50;;
25980;SDS011;13772;52.996;9.124;2023-08-31T14:35:22;3.65;;;0.90;;
25980;SDS011;13772;52.996;9.124;2023-08-31T14:37:47;2.05;;;0.63;;
25980;SDS011;13772;52.996;9.124;2023-08-31T14:40:12;3.25;;;0.93;;
25980;SDS011;13772;52.996;9.124;2023-08-31T14:42:38;4.70;;;1.20;;
25980;SDS011;13772;52.996;9.124;2023-08-31T14:45:05;5.25;;;0.80;;
25980;SDS011;13772;52.996;9.124;2023-08-31T14:47:30;1.92;;;0.68;;
25980;SDS011;13772;52.996;9.124;2023-08-31T14:49:55;1.50;;;0.60;;
25980;SDS011;13772;52.996;9.124;2023-08-31T14:52:21;4.82;;;0.90;;
25980;SDS011;13772;52.996;9.124;2023-08-31T14:54:46;3.55;;;0.80;;
25980;SDS011;13772;52.996;9.124;2023-08-31T14:57:11;1.90;;;0.85;;
25980;SDS011;13772;52.996;9.124;2023-08-31T14:59:37;2.90;;;0.90;;
25980;SDS011;13772;52.996;9.124;2023-08-31T15:02:02;1.70;;;0.70;;
25980;SDS011;13772;52.996;9.124;2023-08-31T15:04:30;1.23;;;0.50;;
25980;SDS011;13772;52.996;9.124;2023-08-31T15:06:55;0.80;;;0.43;;
25980;SDS011;13772;52.996;9.124;2023-08-31T15:09:21;1.27;;;0.50;;
25980;SDS011;13772;52.996;9.124;2023-08-31T15:11:46;1.83;;;0.50;;
25980;SDS011;13772;52.996;9.124;2023-08-31T15:14:12;1.50;;;0.47;;
25980;SDS011;13772;52.996;9.124;2023-08-31T15:16:37;2.40;;;0.85;;
25980;SDS011;13772;52.996;9.124;2023-08-31T15:19:03;2.53;;;0.50;;
25980;SDS011;13772;52.996;9.124;2023-08-31T15:21:28;1.83;;;0.60;;
25980;SDS011;13772;52.996;9.124;2023-08-31T15:23:53;1.65;;;0.40;;
25980;SDS011;13772;52.996;9.124;2023-08-31T15:26:18;1.55;;;0.57;;
25980;SDS011;13772;52.996;9.124;2023-08-31T15:28:44;1.92;;;0.60;;
25980;SDS011;13772;52.996;9.124;2023-08-31T15:31:12;1.35;;;0.47;;
25980;SDS011;13772;52.996;9.124;2023-08-31T15:33:38;1.88;;;0.50;;
25980;SDS011;13772;52.996;9.124;2023-08-31T15:36:06;1.55;;;0.30;;
25980;SDS011;13772;52.996;9.124;2023-08-31T15:38:32;1.27;;;0.50;;
25980;SDS011;13772;52.996;9.124;2023-08-31T15:40:58;2.05;;;0.40;;
25980;SDS011;13772;52.996;9.124;2023-08-31T15:43:23;1.02;;;0.40;;
25980;SDS011;13772;52.996;9.124;2023-08-31T15:45:49;0.80;;;0.35;;
25980;SDS011;13772;52.996;9.124;2023-08-31T15:48:14;0.50;;;0.30;;
25980;SDS011;13772;52.996;9.124;2023-08-31T15:50:39;2.30;;;0.40;;
25980;SDS011;13772;52.996;9.124;2023-08-31T15:53:05;0.40;;;0.30;;
25980;SDS011;13772;52.996;9.124;2023-08-31T15:55:30;1.10;;;0.35;;
25980;SDS011;13772;52.996;9.124;2023-08-31T15:57:55;1.95;;;0.50;;
25980;SDS011;13772;52.996;9.124;2023-08-31T16:00:21;1.80;;;0.80;;
25980;SDS011;13772;52.996;9.124;2023-08-31T16:02:47;2.55;;;0.50;;
25980;SDS011;13772;52.996;9.124;2023-08-31T16:05:12;0.60;;;0.30;;
25980;SDS011;13772;52.996;9.124;2023-08-31T16:07:38;1.92;;;0.45;;
25980;SDS011;13772;52.996;9.124;2023-08-31T16:10:04;1.52;;;0.30;;
25980;SDS011;13772;52.996;9.124;2023-08-31T16:12:30;1.25;;;0.60;;
25980;SDS011;13772;52.996;9.124;2023-08-31T16:14:55;1.85;;;0.70;;
25980;SDS011;13772;52.996;9.124;2023-08-31T16:17:21;1.73;;;0.57;;
25980;SDS011;13772;52.996;9.124;2023-08-31T16:19:46;0.73;;;0.40;;
25980;SDS011;13772;52.996;9.124;2023-08-31T16:22:12;1.75;;;0.57;;
25980;SDS011;13772;52.996;9.124;2023-08-31T16:24:37;1.70;;;0.60;;
25980;SDS011;13772;52.996;9.124;2023-08-31T16:27:03;1.85;;;0.70;;
25980;SDS011;13772;52.996;9.124;2023-08-31T16:29:28;2.08;;;0.70;;
25980;SDS011;13772;52.996;9.124;2023-08-31T16:31:53;1.60;;;0.73;;
25980;SDS011;13772;52.996;9.124;2023-08-31T16:34:18;2.65;;;0.70;;
25980;SDS011;13772;52.996;9.124;2023-08-31T16:36:44;2.85;;;0.80;;
25980;SDS011;13772;52.996;9.124;2023-08-31T16:39:11;2.35;;;0.50;;
25980;SDS011;13772;52.996;9.124;2023-08-31T16:41:36;1.42;;;0.63;;
25980;SDS011;13772;52.996;9.124;2023-08-31T16:44:01;3.65;;;0.90;;
25980;SDS011;13772;52.996;9.124;2023-08-31T16:46:29;2.47;;;0.85;;
25980;SDS011;13772;52.996;9.124;2023-08-31T16:48:54;2.08;;;0.60;;
25980;SDS011;13772;52.996;9.124;2023-08-31T16:51:19;1.23;;;0.60;;
25980;SDS011;13772;52.996;9.124;2023-08-31T16:53:46;2.33;;;0.77;;
25980;SDS011;13772;52.996;9.124;2023-08-31T16:56:12;2.22;;;0.98;;
25980;SDS011;13772;52.996;9.124;2023-08-31T16:58:38;1.25;;;0.60;;
25980;SDS011;13772;52.996;9.124;2023-08-31T17:01:03;1.50;;;0.60;;
25980;SDS011;13772;52.996;9.124;2023-08-31T17:03:29;1.55;;;0.70;;
25980;SDS011;13772;52.996;9.124;2023-08-31T17:05:54;2.30;;;0.90;;
25980;SDS011;13772;52.996;9.124;2023-08-31T17:08:20;1.63;;;1.00;;
25980;SDS011;13772;52.996;9.124;2023-08-31T17:10:46;2.20;;;0.88;;
25980;SDS011;13772;52.996;9.124;2023-08-31T17:13:11;2.08;;;0.95;;
25980;SDS011;13772;52.996;9.124;2023-08-31T17:15:36;1.85;;;1.02;;
25980;SDS011;13772;52.996;9.124;2023-08-31T17:18:02;2.80;;;0.75;;
25980;SDS011;13772;52.996;9.124;2023-08-31T17:20:27;1.27;;;0.85;;
25980;SDS011;13772;52.996;9.124;2023-08-31T17:22:55;2.83;;;0.90;;
25980;SDS011;13772;52.996;9.124;2023-08-31T17:25:20;4.30;;;1.00;;
25980;SDS011;13772;52.996;9.124;2023-08-31T17:27:46;2.15;;;0.90;;
25980;SDS011;13772;52.996;9.124;2023-08-31T17:30:11;2.33;;;1.23;;
25980;SDS011;13772;52.996;9.124;2023-08-31T17:32:36;3.20;;;1.30;;
25980;SDS011;13772;52.996;9.124;2023-08-31T17:35:02;7.22;;;1.30;;
25980;SDS011;13772;52.996;9.124;2023-08-31T17:37:29;3.60;;;0.80;;
25980;SDS011;13772;52.996;9.124;2023-08-31T17:39:54;4.00;;;1.25;;
25980;SDS011;13772;52.996;9.124;2023-08-31T17:42:19;6.45;;;1.25;;
25980;SDS011;13772;52.996;9.124;2023-08-31T17:44:44;5.30;;;1.25;;
25980;SDS011;13772;52.996;9.124;2023-08-31T17:47:10;4.18;;;1.83;;
25980;SDS011;13772;52.996;9.124;2023-08-31T17:49:35;3.33;;;1.00;;
25980;SDS011;13772;52.996;9.124;2023-08-31T17:52:00;2.45;;;0.90;;
25980;SDS011;13772;52.996;9.124;2023-08-31T17:54:26;3.03;;;1.00;;
25980;SDS011;13772;52.996;9.124;2023-08-31T17:56:51;12.52;;;1.25;;
25980;SDS011;13772;52.996;9.124;2023-08-31T17:59:16;5.03;;;0.90;;
25980;SDS011;13772;52.996;9.124;2023-08-31T18:01:43;4.32;;;0.95;;
25980;SDS011;13772;52.996;9.124;2023-08-31T18:04:08;4.95;;;1.23;;
25980;SDS011;13772;52.996;9.124;2023-08-31T18:06:34;3.10;;;1.17;;
25980;SDS011;13772;52.996;9.124;2023-08-31T18:09:01;3.75;;;0.90;;
25980;SDS011;13772;52.996;9.124;2023-08-31T18:11:30;3.65;;;1.10;;
25980;SDS011;13772;52.996;9.124;2023-08-31T18:13:55;3.70;;;1.08;;
25980;SDS011;13772;52.996;9.124;2023-08-31T18:16:21;7.97;;;1.33;;
25980;SDS011;13772;52.996;9.124;2023-08-31T18:18:46;2.88;;;1.10;;
25980;SDS011;13772;52.996;9.124;2023-08-31T18:21:11;5.28;;;1.70;;
25980;SDS011;13772;52.996;9.124;2023-08-31T18:23:37;3.30;;;1.05;;
25980;SDS011;13772;52.996;9.124;2023-08-31T18:26:02;2.88;;;1.00;;
25980;SDS011;13772;52.996;9.124;2023-08-31T18:28:28;2.63;;;1.10;;
25980;SDS011;13772;52.996;9.124;2023-08-31T18:30:54;2.15;;;1.10;;
25980;SDS011;13772;52.996;9.124;2023-08-31T18:33:20;4.15;;;1.20;;
25980;SDS011;13772;52.996;9.124;2023-08-31T18:35:49;1.88;;;1.10;;
25980;SDS011;13772;52.996;9.124;2023-08-31T18:38:15;5.53;;;1.27;;
25980;SDS011;13772;52.996;9.124;2023-08-31T18:40:40;4.78;;;1.60;;
25980;SDS011;13772;52.996;9.124;2023-08-31T18:43:05;2.42;;;1.23;;
25980;SDS011;13772;52.996;9.124;2023-08-31T18:45:31;2.75;;;1.30;;
25980;SDS011;13772;52.996;9.124;2023-08-31T18:47:56;5.38;;;1.50;;
25980;SDS011;13772;52.996;9.124;2023-08-31T18:50:21;7.32;;;1.40;;
25980;SDS011;13772;52.996;9.124;2023-08-31T18:52:47;5.15;;;1.17;;
25980;SDS011;13772;52.996;9.124;2023-08-31T18:55:12;4.45;;;1.10;;
25980;SDS011;13772;52.996;9.124;2023-08-31T18:57:40;3.60;;;1.30;;
25980;SDS011;13772;52.996;9.124;2023-08-31T19:00:06;3.13;;;1.60;;
25980;SDS011;13772;52.996;9.124;2023-08-31T19:02:31;4.07;;;1.05;;
25980;SDS011;13772;52.996;9.124;2023-08-31T19:04:57;2.97;;;1.10;;
25980;SDS011;13772;52.996;9.124;2023-08-31T19:07:22;6.53;;;1.23;;
25980;SDS011;13772;52.996;9.124;2023-08-31T19:09:47;3.38;;;1.60;;
25980;SDS011;13772;52.996;9.124;2023-08-31T19:12:12;3.00;;;1.20;;
25980;SDS011;13772;52.996;9.124;2023-08-31T19:14:38;4.97;;;1.42;;
25980;SDS011;13772;52.996;9.124;2023-08-31T19:17:03;3.28;;;1.35;;
25980;SDS011;13772;52.996;9.124;2023-08-31T19:19:28;4.32;;;1.50;;
25980;SDS011;13772;52.996;9.124;2023-08-31T19:21:54;3.80;;;1.30;;
25980;SDS011;13772;52.996;9.124;2023-08-31T19:24:19;2.67;;;1.33;;
25980;SDS011;13772;52.996;9.124;2023-08-31T19:26:44;4.43;;;1.48;;
25980;SDS011;13772;52.996;9.124;2023-08-31T19:29:09;3.80;;;1.52;;
25980;SDS011;13772;52.996;9.124;2023-08-31T19:31:35;5.50;;;1.80;;
25980;SDS011;13772;52.996;9.124;2023-08-31T19:34:00;3.63;;;1.50;;
25980;SDS011;13772;52.996;9.124;2023-08-31T19:36:26;5.95;;;1.70;;
25980;SDS011;13772;52.996;9.124;2023-08-31T19:38:51;6.07;;;1.65;;
25980;SDS011;13772;52.996;9.124;2023-08-31T19:41:16;5.55;;;1.60;;
25980;SDS011;13772;52.996;9.124;2023-08-31T19:43:41;3.30;;;1.40;;
25980;SDS011;13772;52.996;9.124;2023-08-31T19:46:10;3.60;;;1.80;;
25980;SDS011;13772;52.996;9.124;2023-08-31T19:48:36;5.50;;;1.83;;
25980;SDS011;13772;52.996;9.124;2023-08-31T19:51:04;3.72;;;1.65;;
25980;SDS011;13772;52.996;9.124;2023-08-31T19:53:30;3.28;;;1.40;;
25980;SDS011;13772;52.996;9.124;2023-08-31T19:55:55;3.70;;;1.73;;
25980;SDS011;13772;52.996;9.124;2023-08-31T19:58:20;4.03;;;1.75;;
25980;SDS011;13772;52.996;9.124;2023-08-31T20:00:46;3.80;;;2.03;;
25980;SDS011;13772;52.996;9.124;2023-08-31T20:03:11;2.67;;;1.70;;
25980;SDS011;13772;52.996;9.124;2023-08-31T20:05:36;7.82;;;1.95;;
25980;SDS011;13772;52.996;9.124;2023-08-31T20:08:01;2.35;;;1.67;;
25980;SDS011;13772;52.996;9.124;2023-08-31T20:10:28;2.90;;;1.75;;
25980;SDS011;13772;52.996;9.124;2023-08-31T20:12:53;6.78;;;1.80;;
25980;SDS011;13772;52.996;9.124;2023-08-31T20:15:19;4.00;;;1.50;;
25980;SDS011;13772;52.996;9.124;2023-08-31T20:17:47;8.60;;;1.77;;
25980;SDS011;13772;52.996;9.124;2023-08-31T20:20:12;3.53;;;1.77;;
25980;SDS011;13772;52.996;9.124;2023-08-31T20:22:38;4.65;;;2.22;;
25980;SDS011;13772;52.996;9.124;2023-08-31T20:25:04;7.05;;;2.25;;
25980;SDS011;13772;52.996;9.124;2023-08-31T20:27:29;5.57;;;1.75;;
25980;SDS011;13772;52.996;9.124;2023-08-31T20:29:55;5.90;;;1.65;;
25980;SDS011;13772;52.996;9.124;2023-08-31T20:32:20;8.57;;;1.80;;
25980;SDS011;13772;52.996;9.124;2023-08-31T20:34:46;8.32;;;1.95;;
25980;SDS011;13772;52.996;9.124;2023-08-31T20:37:11;7.63;;;2.03;;
25980;SDS011;13772;52.996;9.124;2023-08-31T20:39:36;5.20;;;1.90;;
25980;SDS011;13772;52.996;9.124;2023-08-31T20:42:03;5.18;;;1.70;;
25980;SDS011;13772;52.996;9.124;2023-08-31T20:44:30;9.85;;;1.98;;
25980;SDS011;13772;52.996;9.124;2023-08-31T20:46:56;5.40;;;1.95;;
25980;SDS011;13772;52.996;9.124;2023-08-31T20:49:23;5.13;;;1.98;;
25980;SDS011;13772;52.996;9.124;2023-08-31T20:51:48;5.20;;;2.30;;
25980;SDS011;13772;52.996;9.124;2023-08-31T20:54:13;6.30;;;1.83;;
25980;SDS011;13772;52.996;9.124;2023-08-31T20:56:38;4.95;;;1.73;;
25980;SDS011;13772;52.996;9.124;2023-08-31T20:59:04;7.38;;;1.65;;
25980;SDS011;13772;52.996;9.124;2023-08-31T21:01:30;4.78;;;1.75;;
25980;SDS011;13772;52.996;9.124;2023-08-31T21:03:56;3.83;;;1.77;;
25980;SDS011;13772;52.996;9.124;2023-08-31T21:06:22;4.55;;;2.03;;
25980;SDS011;13772;52.996;9.124;2023-08-31T21:08:48;5.07;;;1.75;;
25980;SDS011;13772;52.996;9.124;2023-08-31T21:11:13;6.75;;;2.25;;
25980;SDS011;13772;52.996;9.124;2023-08-31T21:13:38;5.80;;;2.33;;